Time;durP1;ratioP1;P1;durP2;ratioP2;P2;SDS_P1;SDS_P2;PMS_P1;PMS_P2;Temp;Humidity;BMP_temperature;BMP_pressure;BME280_temperature;BME280_humidity;BME280_pressure;Samples;Min_cycle;Max_cycle;Signal;HPM_P1;HPM_P2
2021/12/22 00:00:36;;;;;;;35.53;10.87;;;0.70;97.30;;;;;;5079670;28;20185;-84
2021/12/22 00:03:04;;;;;;;37.80;13.20;;;0.70;97.30;;;;;;5070606;28;20191;-85
2021/12/22 00:05:31;;;;;;;43.07;11.97;;;0.70;97.30;;;;;;5091889;28;20194;-83
2021/12/22 00:07:56;;;;;;;40.67;11.83;;;0.70;97.30;;;;;;5080140;28;20408;-84
2021/12/22 00:10:25;;;;;;;33.53;10.73;;;0.70;97.30;;;;;;5081993;28;20476;-84
2021/12/22 00:12:51;;;;;;;41.07;13.13;;;0.70;97.30;;;;;;5099174;28;20243;-85
2021/12/22 00:15:17;;;;;;;37.40;11.60;;;0.70;97.30;;;;;;5082406;28;20420;-84
2021/12/22 00:17:45;;;;;;;40.70;13.70;;;0.70;97.30;;;;;;5081986;28;20438;-84
2021/12/22 00:20:15;;;;;;;40.20;12.40;;;0.70;97.30;;;;;;5081467;28;20428;-83
2021/12/22 00:22:42;;;;;;;42.33;12.63;;;0.70;97.30;;;;;;5081425;28;20436;-84
2021/12/22 00:25:08;;;;;;;51.83;10.97;;;0.70;97.30;;;;;;5081037;28;20468;-84
2021/12/22 00:27:33;;;;;;;35.80;13.03;;;0.70;97.30;;;;;;5082756;28;20498;-83
2021/12/22 00:29:59;;;;;;;38.03;11.13;;;0.70;97.30;;;;;;5100722;28;20432;-84
2021/12/22 00:32:27;;;;;;;37.23;13.10;;;0.70;97.30;;;;;;5080776;28;20187;-87
2021/12/22 00:34:55;;;;;;;41.17;12.20;;;0.70;97.30;;;;;;5077323;28;20231;-82
2021/12/22 00:37:26;;;;;;;42.73;12.57;;;0.70;97.30;;;;;;5074319;28;20440;-85
2021/12/22 00:39:53;;;;;;;41.83;12.17;;;0.70;97.30;;;;;;5063893;28;20433;-84
2021/12/22 00:42:20;;;;;;;43.50;13.10;;;0.70;97.30;;;;;;5061637;28;20438;-85
2021/12/22 00:44:50;;;;;;;42.63;14.63;;;0.70;97.30;;;;;;5062414;28;20519;-85
2021/12/22 00:47:21;;;;;;;41.17;12.43;;;0.70;97.30;;;;;;5060604;28;20476;-84
2021/12/22 00:49:47;;;;;;;38.30;11.10;;;0.70;97.30;;;;;;5060836;28;20409;-83
2021/12/22 00:52:13;;;;;;;38.67;14.30;;;0.70;97.30;;;;;;5074294;28;20960;-84
2021/12/22 00:54:39;;;;;;;36.63;11.33;;;0.70;97.30;;;;;;5079435;28;20454;-83
2021/12/22 00:57:06;;;;;;;40.33;12.87;;;0.70;97.30;;;;;;5080411;28;20252;-84
2021/12/22 00:59:35;;;;;;;40.53;12.70;;;0.70;97.30;;;;;;5080174;28;20179;-84
2021/12/22 01:02:04;;;;;;;33.83;11.47;;;0.70;97.30;;;;;;5079634;28;20436;-84
2021/12/22 01:04:29;;;;;;;36.77;11.70;;;0.70;97.30;;;;;;5080407;28;20441;-84
2021/12/22 01:06:55;;;;;;;38.87;12.33;;;0.70;97.30;;;;;;5080958;28;20480;-82
2021/12/22 01:09:20;;;;;;;33.73;10.97;;;0.70;97.30;;;;;;5066895;28;20182;-84
2021/12/22 01:11:46;;;;;;;45.97;14.27;;;0.70;97.30;;;;;;5061108;28;20200;-85
2021/12/22 01:14:15;;;;;;;42.40;12.70;;;0.70;97.30;;;;;;5082528;28;20258;-84
2021/12/22 01:16:46;;;;;;;46.00;13.40;;;0.60;97.30;;;;;;5082026;28;20175;-84
2021/12/22 01:19:16;;;;;;;34.23;11.30;;;0.60;97.30;;;;;;5064150;28;20414;-85
2021/12/22 01:21:49;;;;;;;45.73;13.33;;;0.60;97.30;;;;;;5064005;28;20441;-84
2021/12/22 01:26:52;;;;;;;39.80;14.57;;;0.60;97.30;;;;;;5082055;28;20437;-85
2021/12/22 01:29:19;;;;;;;35.33;11.40;;;0.60;97.30;;;;;;5063766;28;20925;-84
2021/12/22 01:31:44;;;;;;;32.70;9.67;;;0.50;97.30;;;;;;5063379;28;20433;-84
2021/12/22 01:34:10;;;;;;;31.60;10.70;;;0.50;97.30;;;;;;5082694;28;20517;-85
2021/12/22 01:36:37;;;;;;;47.33;12.10;;;0.50;97.30;;;;;;5063917;28;20913;-85
2021/12/22 01:39:04;;;;;;;32.07;10.80;;;0.50;97.30;;;;;;5062779;28;20432;-84
2021/12/22 01:41:29;;;;;;;33.83;12.00;;;0.50;97.30;;;;;;5081415;28;20465;-84
2021/12/22 01:43:55;;;;;;;35.43;9.50;;;0.50;97.30;;;;;;5062865;28;21106;-86
2021/12/22 01:49:09;;;;;;;39.43;13.40;;;0.50;97.30;;;;;;5080665;28;20203;-84
2021/12/22 01:49:37;;;;;;;26.10;10.37;;;0.40;97.30;;;;;;5080691;28;20176;-85
2021/12/22 01:52:05;;;;;;;37.23;10.93;;;0.40;97.30;;;;;;5062937;28;20430;-83
2021/12/22 01:55:14;;;;;;;39.80;12.43;;;0.40;97.30;;;;;;5062486;28;20440;-84
2021/12/22 01:57:48;;;;;;;40.80;10.97;;;0.40;97.30;;;;;;4962439;28;20446;-84
2021/12/22 02:00:16;;;;;;;37.10;10.87;;;0.30;97.30;;;;;;5090471;28;20478;-85
2021/12/22 02:02:42;;;;;;;34.17;10.10;;;0.30;97.30;;;;;;5082256;28;20437;-84
2021/12/22 02:05:08;;;;;;;32.23;10.50;;;0.30;97.30;;;;;;5082137;28;20505;-82
2021/12/22 02:07:36;;;;;;;36.80;11.80;;;0.30;97.30;;;;;;5083241;28;20178;-84
2021/12/22 02:10:15;;;;;;;36.37;11.20;;;0.30;97.30;;;;;;5082240;28;20411;-83
2021/12/22 02:12:47;;;;;;;42.90;12.70;;;0.30;97.30;;;;;;5083224;28;20455;-85
2021/12/22 02:15:12;;;;;;;34.57;11.00;;;0.30;97.30;;;;;;5082792;28;20420;-84
2021/12/22 02:17:40;;;;;;;26.30;10.10;;;0.30;97.30;;;;;;5082559;28;20778;-84
2021/12/22 02:20:06;;;;;;;39.83;12.37;;;0.30;97.30;;;;;;5082055;28;20175;-84
2021/12/22 02:22:32;;;;;;;37.07;10.80;;;0.30;97.30;;;;;;5081927;28;20436;-86
2021/12/22 02:25:04;;;;;;;37.27;11.43;;;0.30;97.30;;;;;;5081859;28;20482;-84
2021/12/22 02:27:35;;;;;;;33.13;10.67;;;0.30;97.30;;;;;;5081973;28;20405;-84
2021/12/22 02:30:04;;;;;;;40.33;11.90;;;0.30;97.30;;;;;;5082306;28;20518;-85
2021/12/22 02:32:58;;;;;;;41.17;11.00;;;0.30;97.30;;;;;;5082451;28;20432;-86
2021/12/22 02:35:17;;;;;;;30.70;10.27;;;0.30;97.30;;;;;;5099945;28;20416;-85
2021/12/22 02:37:45;;;;;;;32.30;11.80;;;0.30;97.30;;;;;;5099746;28;20416;-85
2021/12/22 02:40:16;;;;;;;40.53;11.87;;;0.30;97.30;;;;;;5081155;28;20415;-84
2021/12/22 02:42:45;;;;;;;42.77;11.67;;;0.20;97.30;;;;;;5074301;28;20445;-85
2021/12/22 02:45:17;;;;;;;35.17;10.70;;;0.10;97.30;;;;;;5061195;28;20457;-85
2021/12/22 02:47:43;;;;;;;34.03;11.90;;;0.10;97.30;;;;;;5061363;28;20467;-84
2021/12/22 02:50:10;;;;;;;46.77;13.07;;;0.10;97.30;;;;;;5061315;28;20452;-83
2021/12/22 02:52:49;;;;;;;41.43;11.90;;;0.10;97.30;;;;;;5061596;28;20540;-85
2021/12/22 02:55:15;;;;;;;32.70;11.30;;;0.10;97.30;;;;;;5079533;28;20420;-84
2021/12/22 02:57:46;;;;;;;40.83;11.30;;;0.00;97.30;;;;;;5079347;28;20409;-83
2021/12/22 03:05:22;;;;;;;32.70;11.77;;;0.00;97.30;;;;;;5079591;28;20457;-85
2021/12/22 03:07:48;;;;;;;38.43;13.70;;;0.00;97.30;;;;;;5061889;28;20240;-82
2021/12/22 03:10:17;;;;;;;33.07;10.50;;;-0.10;97.30;;;;;;5077935;28;20428;-83
2021/12/22 03:12:44;;;;;;;34.87;10.90;;;-0.10;97.30;;;;;;5078039;28;20451;-85
2021/12/22 03:15:10;;;;;;;37.87;12.57;;;-0.10;97.30;;;;;;5065301;28;20417;-84
2021/12/22 03:17:39;;;;;;;36.20;11.40;;;-0.10;97.30;;;;;;5071541;28;20417;-84
2021/12/22 03:20:07;;;;;;;34.83;10.60;;;-0.10;97.30;;;;;;5081200;28;20420;-83
2021/12/22 03:22:32;;;;;;;37.57;12.67;;;-0.20;97.30;;;;;;5064994;28;20487;-83
2021/12/22 03:24:58;;;;;;;34.07;11.97;;;-0.20;97.30;;;;;;5060723;28;20453;-82
2021/12/22 03:27:24;;;;;;;30.00;11.23;;;-0.30;97.30;;;;;;5061468;28;20171;-85
2021/12/22 03:29:51;;;;;;;23.90;10.00;;;-0.30;97.30;;;;;;5067728;28;20169;-85
2021/12/22 03:32:17;;;;;;;33.20;10.93;;;-0.30;97.30;;;;;;5081601;28;20466;-83
2021/12/22 03:34:43;;;;;;;25.73;9.37;;;-0.40;97.30;;;;;;5080382;28;20408;-85
2021/12/22 03:37:11;;;;;;;30.33;10.50;;;-0.40;97.30;;;;;;5080781;28;20404;-84
2021/12/22 03:39:37;;;;;;;21.27;9.77;;;-0.40;97.30;;;;;;5080718;28;20171;-84
2021/12/22 03:42:05;;;;;;;22.47;8.87;;;-0.40;97.30;;;;;;5080708;28;20526;-84
2021/12/22 03:44:31;;;;;;;22.13;8.67;;;-0.40;97.30;;;;;;5079993;28;21107;-84
2021/12/22 03:46:59;;;;;;;29.27;8.97;;;-0.40;97.30;;;;;;5074643;28;20453;-85
2021/12/22 03:49:25;;;;;;;19.77;7.47;;;-0.40;97.30;;;;;;5060779;28;20268;-84
2021/12/22 03:51:51;;;;;;;25.87;10.37;;;-0.40;97.30;;;;;;5078321;28;20465;-80
2021/12/22 03:54:17;;;;;;;20.60;8.70;;;-0.40;97.30;;;;;;5060895;28;20793;-83
2021/12/22 03:56:42;;;;;;;20.97;8.90;;;-0.50;97.30;;;;;;5061151;28;20182;-83
2021/12/22 03:59:08;;;;;;;15.77;7.63;;;-0.50;97.30;;;;;;5080420;28;20193;-84
2021/12/22 04:01:33;;;;;;;20.57;8.90;;;-0.60;97.30;;;;;;5080441;28;20202;-83
2021/12/22 04:04:04;;;;;;;13.77;6.73;;;-0.60;97.30;;;;;;5080188;28;20208;-83
2021/12/22 04:06:29;;;;;;;25.00;8.93;;;-0.60;97.30;;;;;;5080061;28;20456;-84
2021/12/22 04:08:55;;;;;;;17.93;7.77;;;-0.60;97.30;;;;;;5080043;28;20420;-83
2021/12/22 04:11:21;;;;;;;16.70;7.67;;;-0.60;97.30;;;;;;5080771;28;20194;-85
2021/12/22 04:13:46;;;;;;;19.23;8.33;;;-0.60;97.30;;;;;;5080497;28;20612;-84
2021/12/22 04:16:12;;;;;;;16.50;6.60;;;-0.60;97.30;;;;;;5080398;28;20175;-82
2021/12/22 04:18:37;;;;;;;19.40;7.40;;;-0.60;97.30;;;;;;5098419;28;20178;-85
2021/12/22 04:21:03;;;;;;;14.67;6.60;;;-0.60;97.30;;;;;;5075015;28;20191;-83
2021/12/22 04:23:29;;;;;;;19.83;8.23;;;-0.60;97.30;;;;;;5060478;28;20270;-84
2021/12/22 04:25:54;;;;;;;22.37;8.57;;;-0.60;97.30;;;;;;5060584;28;20693;-84
2021/12/22 04:28:20;;;;;;;20.00;6.23;;;-0.60;97.30;;;;;;5060783;28;20202;-84
2021/12/22 04:30:49;;;;;;;16.60;7.60;;;-0.70;97.30;;;;;;5060829;28;20179;-83
2021/12/22 04:33:22;;;;;;;19.30;8.23;;;-0.70;97.30;;;;;;5061253;28;20179;-85
2021/12/22 04:35:49;;;;;;;15.83;6.50;;;-0.70;97.30;;;;;;5061119;28;20407;-84
2021/12/22 04:38:15;;;;;;;19.43;8.00;;;-0.70;97.30;;;;;;5061115;28;20424;-84
2021/12/22 04:40:41;;;;;;;17.90;7.37;;;-0.70;97.30;;;;;;5060903;28;20442;-84
2021/12/22 04:43:07;;;;;;;15.60;6.93;;;-0.70;97.30;;;;;;5064217;28;20503;-84
2021/12/22 04:45:32;;;;;;;14.17;6.50;;;-0.80;97.30;;;;;;5080098;28;20194;-83
2021/12/22 04:47:58;;;;;;;19.70;6.77;;;-0.80;97.30;;;;;;5101842;28;20237;-83
2021/12/22 04:50:24;;;;;;;12.70;5.93;;;-0.80;97.30;;;;;;5084880;28;20175;-85
2021/12/22 04:55:23;;;;;;;15.37;5.77;;;-0.90;97.30;;;;;;5104377;28;20450;-84
2021/12/22 04:57:49;;;;;;;13.27;6.00;;;-0.90;97.30;;;;;;5085031;28;20435;-83
2021/12/22 05:00:16;;;;;;;25.33;6.57;;;-0.90;97.30;;;;;;5084821;28;20412;-84
2021/12/22 05:02:42;;;;;;;17.53;7.20;;;-0.90;97.30;;;;;;5084111;28;20198;-85
2021/12/22 05:05:08;;;;;;;15.63;5.50;;;-0.90;97.30;;;;;;5084143;28;20460;-84
2021/12/22 05:07:34;;;;;;;17.33;6.67;;;-0.90;97.30;;;;;;5084663;28;20205;-84
2021/12/22 05:09:59;;;;;;;11.17;5.70;;;-0.90;97.30;;;;;;5085161;28;20412;-83
2021/12/22 05:12:25;;;;;;;17.00;6.30;;;-0.90;97.30;;;;;;5102718;28;20197;-83
2021/12/22 05:14:52;;;;;;;15.00;5.90;;;-1.00;97.30;;;;;;5103597;28;20171;-85
2021/12/22 05:17:50;;;;;;;18.77;5.50;;;-1.00;97.30;;;;;;5085121;28;20185;-84
2021/12/22 05:20:16;;;;;;;16.93;6.50;;;-1.00;97.30;;;;;;5102605;28;20413;-84
2021/12/22 05:22:43;;;;;;;14.50;5.53;;;-1.20;97.30;;;;;;5084652;28;20531;-85
2021/12/22 05:25:10;;;;;;;13.10;5.47;;;-1.20;97.30;;;;;;5084936;28;20456;-84
2021/12/22 05:27:37;;;;;;;12.70;6.17;;;-1.20;97.30;;;;;;5084089;28;20558;-84
2021/12/22 05:30:05;;;;;;;15.20;6.33;;;-1.20;97.30;;;;;;5083607;28;20484;-84
2021/12/22 05:32:32;;;;;;;16.93;6.20;;;-1.30;97.30;;;;;;5084398;28;20444;-85
2021/12/22 05:35:04;;;;;;;13.93;6.03;;;-1.30;97.30;;;;;;5083714;28;20421;-83
2021/12/22 05:37:29;;;;;;;10.57;5.90;;;-1.30;97.30;;;;;;5084190;28;20448;-84
2021/12/22 05:39:58;;;;;;;17.47;5.73;;;-1.30;97.30;;;;;;5084408;28;20432;-84
2021/12/22 05:42:27;;;;;;;12.33;5.30;;;-1.30;97.30;;;;;;5102894;28;20204;-84
2021/12/22 05:44:52;;;;;;;10.90;5.67;;;-1.30;97.30;;;;;;5065840;28;20417;-85
2021/12/22 05:47:18;;;;;;;13.33;6.07;;;-1.30;97.30;;;;;;5065606;28;20453;-83
2021/12/22 05:49:44;;;;;;;11.17;5.17;;;-1.30;97.30;;;;;;5092933;28;20174;-84
2021/12/22 05:52:10;;;;;;;12.20;6.53;;;-1.30;97.30;;;;;;5086623;28;20450;-82
2021/12/22 05:54:36;;;;;;;11.93;6.20;;;-1.30;97.30;;;;;;5104402;28;20597;-85
2021/12/22 05:57:01;;;;;;;14.30;5.53;;;-1.30;97.30;;;;;;5103407;28;20426;-84
2021/12/22 05:59:27;;;;;;;12.77;5.70;;;-1.30;97.30;;;;;;5104944;28;20209;-83
2021/12/22 06:01:54;;;;;;;13.73;5.70;;;-1.30;97.30;;;;;;5085567;28;20194;-85
2021/12/22 06:04:19;;;;;;;10.87;5.67;;;-1.30;97.30;;;;;;5085093;28;20175;-81
2021/12/22 06:06:45;;;;;;;18.87;7.07;;;-1.30;97.30;;;;;;5086276;28;20464;-84
2021/12/22 06:09:10;;;;;;;12.30;6.00;;;-1.30;97.30;;;;;;5083774;28;20194;-83
2021/12/22 06:11:36;;;;;;;11.63;5.37;;;-1.30;97.30;;;;;;5087138;28;20232;-84
2021/12/22 06:14:03;;;;;;;11.33;6.43;;;-1.30;97.30;;;;;;5086594;28;20179;-84
2021/12/22 06:16:30;;;;;;;15.97;6.90;;;-1.30;97.30;;;;;;5086787;28;20269;-82
2021/12/22 06:18:58;;;;;;;10.17;5.70;;;-1.30;97.30;;;;;;5086937;28;20432;-83
2021/12/22 06:21:24;;;;;;;14.10;5.87;;;-1.20;97.30;;;;;;5076751;28;20441;-81
2021/12/22 06:23:50;;;;;;;13.47;6.90;;;-1.20;97.30;;;;;;5066656;28;20409;-83
2021/12/22 06:26:15;;;;;;;14.50;6.60;;;-1.20;97.30;;;;;;5067072;28;20457;-83
2021/12/22 06:28:41;;;;;;;13.87;5.83;;;-1.30;97.30;;;;;;5066790;28;20167;-83
2021/12/22 06:31:07;;;;;;;13.13;6.63;;;-1.30;97.30;;;;;;5066347;28;20704;-82
2021/12/22 06:33:32;;;;;;;13.00;6.63;;;-1.20;97.30;;;;;;5065886;28;20194;-84
2021/12/22 06:35:58;;;;;;;23.07;9.60;;;-1.30;97.30;;;;;;5065796;28;20696;-83
2021/12/22 06:38:24;;;;;;;21.70;8.50;;;-1.20;97.30;;;;;;5065955;28;20179;-84
2021/12/22 06:40:50;;;;;;;20.77;7.40;;;-1.30;97.30;;;;;;5063165;28;20175;-84
2021/12/22 06:43:16;;;;;;;21.30;8.50;;;-1.30;97.30;;;;;;5061202;28;20182;-83
2021/12/22 06:45:42;;;;;;;16.50;7.20;;;-1.30;97.30;;;;;;5062583;28;20203;-84
2021/12/22 06:48:08;;;;;;;22.67;8.37;;;-1.30;97.30;;;;;;5062074;28;20470;-83
2021/12/22 06:50:34;;;;;;;19.70;7.27;;;-1.40;97.30;;;;;;5080877;28;20616;-83
2021/12/22 06:52:59;;;;;;;22.23;8.93;;;-1.40;97.30;;;;;;5062372;28;20270;-84
2021/12/22 06:55:25;;;;;;;17.90;7.63;;;-1.40;97.30;;;;;;5063159;28;20221;-83
2021/12/22 06:57:51;;;;;;;21.67;10.47;;;-1.40;97.30;;;;;;5063396;28;20183;-83
2021/12/22 07:00:16;;;;;;;26.50;8.40;;;-1.50;97.30;;;;;;5064406;28;20182;-84
2021/12/22 07:02:42;;;;;;;22.17;8.50;;;-1.50;97.30;;;;;;5080758;28;20187;-82
2021/12/22 07:05:10;;;;;;;19.73;7.83;;;-1.50;97.30;;;;;;5062525;28;20733;-81
2021/12/22 07:07:37;;;;;;;21.03;8.97;;;-1.60;97.30;;;;;;5063455;28;20182;-83
2021/12/22 07:10:05;;;;;;;19.00;7.70;;;-1.60;97.30;;;;;;5061820;28;20931;-84
2021/12/22 07:12:31;;;;;;;21.10;8.70;;;-1.60;97.30;;;;;;5064222;28;20498;-82
2021/12/22 07:14:56;;;;;;;20.20;8.60;;;-1.60;97.30;;;;;;5059823;28;20402;-83
2021/12/22 07:17:22;;;;;;;24.03;8.33;;;-1.60;97.30;;;;;;5060825;28;20630;-80
2021/12/22 07:19:50;;;;;;;20.70;8.00;;;-1.70;97.30;;;;;;5063198;28;20194;-85
2021/12/22 07:42:51;;;;;;;16.90;8.60;;;-1.80;97.30;;;;;;5056163;28;20684;-81
2021/12/22 07:45:17;;;;;;;18.50;8.37;;;-1.80;97.30;;;;;;5057068;28;20458;-80
2021/12/22 07:47:43;;;;;;;15.30;7.50;;;-1.90;97.30;;;;;;5038541;28;20436;-80
2021/12/22 07:50:10;;;;;;;17.17;8.20;;;-1.90;97.30;;;;;;5039644;28;20584;-81
2021/12/22 07:52:35;;;;;;;17.90;8.20;;;-1.90;97.30;;;;;;5055438;28;20197;-80
2021/12/22 07:55:03;;;;;;;21.67;7.83;;;-1.90;97.30;;;;;;5056063;28;20419;-80
2021/12/22 07:57:29;;;;;;;23.20;8.10;;;-1.90;97.30;;;;;;5055079;28;20179;-81
2021/12/22 07:59:58;;;;;;;27.80;9.37;;;-1.90;97.30;;;;;;5054912;28;20423;-81
2021/12/22 08:02:29;;;;;;;24.30;8.70;;;-1.90;97.30;;;;;;5054798;28;20182;-81
2021/12/22 08:04:58;;;;;;;19.00;8.27;;;-1.90;97.30;;;;;;5055024;28;20454;-80
2021/12/22 08:07:58;;;;;;;21.33;9.53;;;-1.80;97.30;;;;;;5055334;28;20422;-81
2021/12/22 08:10:48;;;;;;;20.83;8.00;;;-1.80;97.30;;;;;;5042941;28;20480;-81
2021/12/22 08:13:18;;;;;;;21.90;7.93;;;-1.70;97.30;;;;;;5038249;28;20438;-81
2021/12/22 08:15:48;;;;;;;20.20;9.47;;;-1.70;97.30;;;;;;5055471;28;20433;-81
2021/12/22 08:18:17;;;;;;;17.80;8.17;;;-1.60;97.30;;;;;;5054654;28;20442;-80
2021/12/22 08:20:57;;;;;;;21.30;8.80;;;-1.50;97.30;;;;;;5055035;28;20533;-82
2021/12/22 08:23:28;;;;;;;20.90;7.60;;;-1.50;97.30;;;;;;5055429;28;20418;-82
2021/12/22 08:25:57;;;;;;;22.77;9.37;;;-1.40;97.30;;;;;;5054791;28;20458;-82
2021/12/22 08:28:28;;;;;;;23.87;8.73;;;-1.30;97.30;;;;;;5054758;28;20421;-82
2021/12/22 08:30:58;;;;;;;21.80;8.63;;;-1.30;97.30;;;;;;5054586;28;20441;-83
2021/12/22 08:33:31;;;;;;;31.80;11.57;;;-1.20;97.30;;;;;;5054262;28;20421;-82
2021/12/22 08:38:55;;;;;;;23.70;8.97;;;-1.10;97.30;;;;;;5055935;28;20405;-83
2021/12/22 08:41:36;;;;;;;18.83;8.30;;;-1.10;97.30;;;;;;5054341;28;20474;-82
2021/12/22 08:44:05;;;;;;;22.57;9.73;;;-1.00;97.30;;;;;;5054402;28;20833;-81
2021/12/22 08:46:34;;;;;;;26.80;9.10;;;-1.00;97.30;;;;;;5054243;28;20466;-82
2021/12/22 08:49:01;;;;;;;26.47;9.43;;;-1.00;97.30;;;;;;5055419;28;20411;-81
2021/12/22 08:51:27;;;;;;;27.47;9.30;;;-0.90;97.30;;;;;;5054458;28;20856;-81
2021/12/22 08:53:53;;;;;;;28.73;8.57;;;-0.90;97.30;;;;;;5053924;28;20418;-81
2021/12/22 08:56:19;;;;;;;21.90;9.33;;;-0.90;97.30;;;;;;5054475;28;20184;-81
2021/12/22 08:58:45;;;;;;;24.83;9.33;;;-0.90;97.30;;;;;;5054209;28;20424;-81
2021/12/22 09:01:10;;;;;;;32.63;9.53;;;-0.90;97.30;;;;;;5054681;28;20947;-81
2021/12/22 09:03:36;;;;;;;34.63;9.83;;;-1.00;97.30;;;;;;5054523;28;20180;-81
2021/12/22 09:06:02;;;;;;;25.57;9.27;;;-1.00;97.30;;;;;;5054340;28;20577;-81
2021/12/22 09:08:28;;;;;;;26.20;10.30;;;-1.00;97.30;;;;;;5053938;28;20357;-82
2021/12/22 09:10:54;;;;;;;27.57;9.63;;;-0.90;97.30;;;;;;5054055;28;20446;-82
2021/12/22 09:13:20;;;;;;;25.70;10.40;;;-0.90;97.30;;;;;;5054957;28;20180;-81
2021/12/22 09:15:47;;;;;;;34.60;10.30;;;-0.90;97.30;;;;;;5054218;28;20425;-81
2021/12/22 09:18:14;;;;;;;27.83;9.83;;;-0.80;97.30;;;;;;5053920;28;20808;-81
2021/12/22 09:20:39;;;;;;;32.10;9.83;;;-0.70;97.30;;;;;;5053911;28;20450;-82
2021/12/22 09:23:05;;;;;;;32.23;10.10;;;-0.70;97.30;;;;;;5053202;28;20679;-81
2021/12/22 09:25:31;;;;;;;25.53;10.43;;;-0.70;97.30;;;;;;5055117;28;20207;-82
2021/12/22 09:27:58;;;;;;;25.80;9.50;;;-0.60;97.30;;;;;;5053655;28;20550;-82
2021/12/22 09:30:24;;;;;;;28.67;11.20;;;-0.60;97.30;;;;;;5053312;28;20278;-81
2021/12/22 09:32:49;;;;;;;31.53;9.40;;;-0.60;97.30;;;;;;5056274;28;20461;-81
2021/12/22 09:35:15;;;;;;;28.33;10.00;;;-0.60;97.30;;;;;;5057222;28;20426;-82
2021/12/22 09:37:42;;;;;;;27.80;10.63;;;-0.60;97.30;;;;;;5056782;28;20194;-82
2021/12/22 09:40:08;;;;;;;25.00;9.90;;;-0.60;97.30;;;;;;5057092;28;20222;-82
2021/12/22 09:42:34;;;;;;;25.17;8.93;;;-0.60;97.30;;;;;;5057628;28;20857;-82
2021/12/22 09:45:01;;;;;;;31.57;10.60;;;-0.60;97.30;;;;;;5056422;28;20410;-82
2021/12/22 09:47:28;;;;;;;28.77;9.47;;;-0.50;97.30;;;;;;5055469;28;20258;-82
2021/12/22 09:50:08;;;;;;;24.43;10.67;;;-0.40;97.30;;;;;;5056761;28;20429;-81
2021/12/22 09:52:38;;;;;;;24.53;9.47;;;-0.40;97.30;;;;;;5056577;28;20823;-81
2021/12/22 09:55:06;;;;;;;24.63;10.97;;;-0.30;97.30;;;;;;5056059;28;20418;-82
2021/12/22 09:57:32;;;;;;;30.83;10.27;;;-0.30;97.30;;;;;;5055357;28;20502;-82
2021/12/22 09:59:59;;;;;;;35.33;11.53;;;-0.20;97.30;;;;;;5055460;28;20444;-82
2021/12/22 10:02:29;;;;;;;34.43;10.87;;;-0.10;97.30;;;;;;5055857;28;20423;-83
2021/12/22 10:04:56;;;;;;;26.73;8.80;;;-0.10;97.30;;;;;;5055193;28;20419;-80
2021/12/22 10:07:27;;;;;;;23.90;9.23;;;0.00;97.30;;;;;;5057470;28;20406;-82
2021/12/22 10:09:55;;;;;;;29.90;10.20;;;0.10;97.30;;;;;;5054545;28;20414;-82
2021/12/22 10:12:26;;;;;;;36.37;12.10;;;0.10;97.30;;;;;;5056053;28;20784;-82
2021/12/22 10:15:01;;;;;;;37.13;11.50;;;0.20;97.30;;;;;;5054721;28;20784;-82
2021/12/22 10:38:05;;;;;;;29.50;9.57;;;0.80;97.30;;;;;;5055682;28;20405;-82
2021/12/22 10:40:34;;;;;;;26.03;9.20;;;0.90;97.30;;;;;;5055503;28;20454;-82
2021/12/22 10:43:03;;;;;;;32.50;10.90;;;1.10;97.30;;;;;;5055374;28;20465;-80
2021/12/22 10:45:31;;;;;;;27.40;10.07;;;1.20;97.30;;;;;;5055301;28;20837;-83
2021/12/22 10:50:43;;;;;;;28.23;10.47;;;1.40;97.30;;;;;;5056651;28;20433;-83
2021/12/22 10:53:14;;;;;;;26.17;10.00;;;1.50;97.30;;;;;;5055078;28;20793;-83
2021/12/22 10:55:46;;;;;;;32.93;11.57;;;1.60;97.30;;;;;;5055615;28;20454;-79
2021/12/22 10:58:24;;;;;;;26.97;10.37;;;1.80;97.30;;;;;;5055044;28;20425;-81
2021/12/22 11:01:08;;;;;;;31.00;11.30;;;1.80;97.30;;;;;;5054205;28;20444;-80
2021/12/22 11:03:41;;;;;;;26.93;10.13;;;1.90;97.30;;;;;;5054214;28;20932;-81
2021/12/22 11:06:20;;;;;;;28.43;10.90;;;1.90;97.30;;;;;;5054592;28;20469;-83
2021/12/22 11:08:56;;;;;;;27.87;10.40;;;2.10;97.30;;;;;;5054280;28;20425;-84
2021/12/22 11:11:22;;;;;;;23.20;9.07;;;2.40;97.30;;;;;;5054008;28;20457;-83
2021/12/22 11:14:02;;;;;;;23.47;10.37;;;2.40;97.30;;;;;;5055329;28;20440;-83
2021/12/22 11:16:28;;;;;;;27.03;10.20;;;2.50;97.30;;;;;;5054097;28;20180;-83
2021/12/22 11:18:54;;;;;;;33.20;10.83;;;2.50;97.30;;;;;;5053557;28;20422;-83
2021/12/22 11:21:27;;;;;;;25.77;11.13;;;2.40;97.30;;;;;;5053883;28;20291;-83
2021/12/22 11:23:53;;;;;;;32.40;10.73;;;2.60;97.30;;;;;;5053695;28;20378;-83
2021/12/22 11:26:19;;;;;;;25.10;9.77;;;2.60;97.30;;;;;;5053200;28;21046;-83
2021/12/22 11:28:44;;;;;;;27.77;9.33;;;2.60;97.30;;;;;;5053894;28;20574;-83
2021/12/22 11:31:12;;;;;;;35.07;9.63;;;2.80;97.30;;;;;;5054135;28;20279;-83
2021/12/22 11:33:40;;;;;;;27.67;9.67;;;2.90;97.30;;;;;;5053821;28;20455;-83
2021/12/22 11:36:07;;;;;;;33.50;11.30;;;3.10;97.30;;;;;;5053415;28;21026;-83
2021/12/22 11:38:33;;;;;;;31.50;10.80;;;3.10;97.30;;;;;;5060965;28;20419;-82
2021/12/22 11:41:20;;;;;;;20.90;8.90;;;3.20;97.30;;;;;;5046666;28;20474;-82
2021/12/22 11:44:10;;;;;;;23.87;9.10;;;3.30;97.30;;;;;;5033958;28;20427;-83
2021/12/22 11:46:38;;;;;;;25.47;10.47;;;3.50;97.30;;;;;;5049885;28;20462;-82
2021/12/22 11:49:29;;;;;;;20.93;8.00;;;3.80;97.30;;;;;;5051461;28;20429;-82
2021/12/22 11:51:59;;;;;;;22.83;8.40;;;4.00;97.20;;;;;;5050277;28;20430;-82
2021/12/22 11:54:28;;;;;;;27.67;9.33;;;3.90;94.80;;;;;;5039423;28;20487;-82
2021/12/22 11:56:58;;;;;;;19.00;8.10;;;4.00;95.50;;;;;;5030842;28;20537;-84
2021/12/22 11:59:50;;;;;;;21.70;8.53;;;3.90;94.40;;;;;;5031132;28;20442;-80
2021/12/22 12:02:21;;;;;;;23.70;8.63;;;3.70;94.80;;;;;;5028618;28;20466;-82
2021/12/22 12:04:52;;;;;;;21.60;8.47;;;3.80;95.70;;;;;;5030909;28;20955;-82
2021/12/22 12:07:40;;;;;;;29.17;10.60;;;4.00;94.80;;;;;;5032339;28;20446;-82
2021/12/22 12:10:38;;;;;;;22.53;9.00;;;4.20;94.70;;;;;;5032697;28;20955;-81
2021/12/22 12:13:09;;;;;;;25.33;9.83;;;4.20;93.70;;;;;;5033036;28;20967;-80
2021/12/22 12:22:12;;;;;;;25.70;8.90;;;4.60;93.30;;;;;;5033359;28;20429;-83
2021/12/22 12:24:43;;;;;;;19.50;8.40;;;4.70;92.90;;;;;;5031545;28;20936;-83
2021/12/22 12:27:51;;;;;;;20.10;7.57;;;4.70;92.40;;;;;;5030961;28;20520;-83
2021/12/22 12:30:26;;;;;;;22.90;8.27;;;5.00;92.50;;;;;;5022529;28;20431;-83
2021/12/22 12:32:53;;;;;;;21.53;7.93;;;5.30;92.10;;;;;;5030644;28;20465;-82
2021/12/22 12:35:28;;;;;;;25.50;9.33;;;5.50;90.80;;;;;;5030998;28;20434;-80
2021/12/22 12:38:16;;;;;;;20.60;8.00;;;5.60;90.50;;;;;;5033715;28;20446;-80
2021/12/22 12:40:57;;;;;;;24.17;8.73;;;5.40;89.40;;;;;;5037521;28;20428;-81
2021/12/22 12:43:45;;;;;;;18.53;7.97;;;5.00;89.20;;;;;;5037332;28;20431;-81
2021/12/22 12:46:29;;;;;;;18.27;7.83;;;4.90;89.90;;;;;;5037454;28;20500;-81
2021/12/22 12:49:03;;;;;;;17.83;7.87;;;4.90;90.10;;;;;;5036824;28;20781;-81
2021/12/22 12:51:40;;;;;;;19.13;8.63;;;4.90;89.90;;;;;;5036805;28;20431;-80
2021/12/22 12:54:08;;;;;;;19.40;7.40;;;5.20;90.20;;;;;;5034555;28;20900;-81
2021/12/22 12:56:39;;;;;;;17.60;7.63;;;5.20;88.90;;;;;;5034788;28;20776;-81
2021/12/22 12:59:16;;;;;;;16.37;6.87;;;5.50;89.80;;;;;;5034272;28;20470;-81
2021/12/22 13:01:44;;;;;;;14.13;6.43;;;5.70;89.40;;;;;;5034819;28;20522;-81
2021/12/22 13:04:31;;;;;;;22.93;8.30;;;5.80;88.90;;;;;;5035919;28;20422;-81
2021/12/22 13:07:02;;;;;;;17.60;7.93;;;5.80;88.30;;;;;;5033757;28;20462;-82
2021/12/22 13:09:30;;;;;;;18.30;7.77;;;5.70;87.50;;;;;;5038239;28;20474;-81
2021/12/22 13:17:39;;;;;;;18.53;7.40;;;5.70;88.40;;;;;;5039764;28;20937;-83
2021/12/22 13:20:07;;;;;;;19.20;7.50;;;5.80;88.60;;;;;;5040211;28;20948;-83
2021/12/22 13:22:35;;;;;;;15.70;6.60;;;5.90;87.70;;;;;;5040460;28;20505;-81
2021/12/22 13:25:12;;;;;;;16.73;6.97;;;6.10;87.70;;;;;;5052742;28;20449;-83
2021/12/22 13:27:40;;;;;;;20.97;7.93;;;6.10;87.40;;;;;;5035846;28;20454;-83
2021/12/22 13:30:33;;;;;;;23.27;8.10;;;6.20;89.10;;;;;;5032356;28;20673;-81
2021/12/22 13:33:06;;;;;;;16.77;7.10;;;6.10;86.80;;;;;;5034695;28;20415;-81
2021/12/22 13:35:46;;;;;;;19.80;7.27;;;6.20;86.90;;;;;;5034686;28;20411;-81
2021/12/22 13:38:40;;;;;;;20.97;7.83;;;6.30;87.20;;;;;;5033628;28;20480;-84
2021/12/22 13:41:17;;;;;;;25.30;8.03;;;6.40;87.00;;;;;;5019054;28;21267;-84
2021/12/22 13:43:53;;;;;;;17.27;7.27;;;6.50;86.10;;;;;;5039457;28;20772;-83
2021/12/22 13:46:48;;;;;;;20.80;6.83;;;6.20;86.30;;;;;;5049870;28;20468;-84
2021/12/22 13:49:15;;;;;;;19.77;7.70;;;5.60;86.80;;;;;;5029144;28;20504;-84
2021/12/22 13:51:47;;;;;;;20.00;6.77;;;5.20;87.80;;;;;;5050482;28;20532;-84
2021/12/22 13:54:23;;;;;;;18.17;6.83;;;5.10;88.80;;;;;;5051452;28;20425;-85
2021/12/22 13:56:51;;;;;;;19.50;7.33;;;5.00;89.20;;;;;;5052038;28;20475;-84
2021/12/22 13:59:24;;;;;;;17.47;7.37;;;4.80;89.10;;;;;;5052343;28;20422;-84